CDT,Max TemperatureF,Mean TemperatureF,Min TemperatureF,Max Dew PointF,MeanDew PointF,Min DewpointF,Max Humidity, Mean Humidity, Min Humidity, Max Sea Level PressureIn, Mean Sea Level PressureIn, Min Sea Level PressureIn, Max VisibilityMiles, Mean VisibilityMiles, Min VisibilityMiles, Max Wind SpeedMPH, Mean Wind SpeedMPH, Max Gust SpeedMPH,PrecipitationIn, CloudCover, Events, WindDirDegrees
2014-3-1,14,8,3,9,-2,-8,79,64,48,30.34,30.21,30.01,10,9,1,16,10,22,0.00,6,,312
2014-3-2,6,0,-5,-6,-15,-18,66,48,34,30.42,30.36,30.30,10,10,5,15,11,20,0.00,3,,299
2014-3-3,10,0,-11,5,-9,-22,79,58,44,30.46,30.40,30.28,10,10,2,15,6,18,0.00,2,,257
2014-3-4,17,12,6,7,5,-2,92,75,58,30.32,30.23,30.19,10,8,2,10,6,,0.00,6,,276
2014-3-5,14,6,1,10,1,-4,86,72,57,30.54,30.47,30.33,10,10,10,14,9,,0.00,1,,18
2014-3-6,21,16,10,16,10,3,86,73,58,30.48,30.27,29.99,10,8,0,17,11,24,0.00,1,,167
2014-3-7,35,27,19,27,20,12,86,74,60,30.05,29.91,29.81,10,8,3,20,11,26,0.00,5,,242
2014-3-8,26,20,15,18,9,7,79,65,46,30.25,30.18,30.05,10,10,10,22,14,28,0.00,2,,341
2014-3-9,37,26,15,28,16,7,75,64,47,30.14,29.88,29.65,10,10,10,22,11,30,0.00,2,,225
2014-3-10,51,42,32,34,31,27,81,66,50,29.66,29.55,29.44,10,10,10,17,10,23,0.00,1,,243
2014-3-11,42,36,28,30,27,18,70,64,57,29.89,29.74,29.60,10,10,10,13,8,18,0.00,4,,357
2014-3-12,26,18,6,18,1,-8,74,56,38,30.11,30.01,29.87,10,10,10,28,18,36,0.00,2,,19
2014-3-13,32,16,0,27,10,-6,86,71,53,30.10,29.90,29.64,10,10,7,17,7,22,0.00,4,,194
2014-3-14,42,36,30,34,30,27,87,72,61,29.72,29.51,29.40,10,10,7,17,13,24,0.00,4,,252
2014-3-15,32,20,8,27,11,0,80,62,46,30.45,30.11,29.73,10,10,10,22,15,31,0.00,4,,12
2014-3-16,15,9,3,7,0,-4,85,67,53,30.49,30.40,30.19,10,10,9,13,8,18,0.00,1,,18
2014-3-17,28,17,6,18,10,0,79,65,54,30.17,29.94,29.81,10,10,7,21,7,30,0.00,6,,155
2014-3-18,35,30,26,28,23,16,81,73,59,29.93,29.88,29.83,10,10,10,16,10,22,0.00,3,,119
2014-3-19,35,32,28,30,28,25,93,86,70,29.83,29.70,29.61,10,6,1,18,10,24,0.10,8,,352
2014-3-20,35,30,26,25,21,18,80,66,52,30.02,29.95,29.84,10,10,9,13,10,17,0.03,6,,271
2014-3-21,35,30,26,28,25,21,93,77,56,30.02,29.90,29.77,10,9,2,18,9,24,0.00,4,,157
2014-3-22,32,21,12,27,14,1,93,64,43,30.36,30.12,29.81,10,10,7,21,12,26,0.00,6,,340
2014-3-23,21,14,8,5,2,0,73,58,46,30.41,30.36,30.31,10,10,10,13,8,17,0.00,2,,279
2014-3-24,30,19,8,19,7,0,86,60,40,30.32,30.16,29.95,10,10,7,17,8,22,0.00,2,,255
2014-3-25,21,16,10,18,4,-2,86,57,39,30.17,30.04,29.93,10,10,8,16,9,23,0.00,6,,307
2014-3-26,30,20,10,25,9,-2,80,61,46,30.24,30.13,29.96,10,10,3,21,8,26,0.00,4,,201
2014-3-27,35,32,28,34,30,25,93,86,75,29.95,29.68,29.47,10,5,0,20,15,30,0.36,8,,168
2014-3-28,37,34,30,30,26,21,87,77,56,30.23,29.91,29.46,10,9,1,23,13,30,0.00,5,,8
2014-3-29,37,30,24,21,18,12,74,60,45,30.31,30.26,30.21,10,10,10,10,5,,0.00,3,,45
2014-3-30,37,29,21,28,22,9,81,69,54,30.25,30.12,30.02,10,10,10,21,7,28,0.00,1,,164
2014-3-31,39,36,33,30,30,28,81,74,70,30.04,30.01,29.98,10,10,10,15,10,22,0.00,4,,171